createdAt,value
2023-01-17T00:00:12.267Z,87.18
2023-01-17T00:02:41.052Z,81.53
2023-01-17T00:05:29.040Z,79.25
2023-01-17T00:08:15.977Z,82.38
2023-01-17T00:10:45.550Z,76.60
2023-01-17T00:13:14.448Z,78.75
2023-01-17T00:15:43.781Z,76.65
2023-01-17T00:18:12.497Z,74.50
2023-01-17T00:20:59.639Z,77.10
2023-01-17T00:23:46.769Z,81.00
2023-01-17T00:26:20.907Z,92.32
2023-01-17T00:28:50.244Z,97.30
2023-01-17T00:31:18.932Z,84.68
2023-01-17T00:33:47.613Z,84.43
2023-01-17T00:36:16.215Z,78.55
2023-01-17T00:38:44.935Z,82.20
2023-01-17T00:41:15.814Z,83.22
2023-01-17T00:44:03.232Z,79.60
2023-01-17T00:46:50.416Z,77.32
2023-01-17T00:49:38.161Z,81.90
2023-01-17T00:52:25.706Z,84.95
2023-01-17T00:55:13.315Z,76.28
2023-01-17T00:58:00.594Z,77.65
2023-01-17T01:00:49.713Z,78.75
2023-01-17T01:03:38.799Z,78.47
2023-01-17T01:06:29.460Z,80.40
2023-01-17T01:09:18.791Z,86.55
2023-01-17T01:12:06.739Z,89.18
2023-01-17T01:14:55.902Z,84.53
2023-01-17T01:17:43.547Z,94.30
2023-01-17T01:20:34.447Z,87.95
2023-01-17T01:23:26.338Z,87.50
2023-01-17T01:26:14.104Z,88.38
2023-01-17T01:29:02.736Z,93.35
2023-01-17T01:31:50.564Z,91.93
2023-01-17T01:34:20.613Z,89.70
2023-01-17T01:36:50.365Z,89.07
2023-01-17T01:39:19.997Z,88.32
2023-01-17T01:41:49.423Z,91.40
2023-01-17T01:44:44.709Z,89.18
2023-01-17T01:47:28.807Z,93.82
2023-01-17T01:50:01.892Z,95.75
2023-01-17T01:52:35.260Z,88.97
2023-01-17T01:55:12.228Z,93.95
2023-01-17T01:57:48.538Z,98.28
2023-01-17T02:00:26.201Z,97.07
2023-01-17T02:03:00.110Z,98.18
2023-01-17T02:05:31.127Z,101.65
2023-01-17T02:08:06.151Z,105.28
2023-01-17T02:10:41.038Z,107.97
2023-01-17T02:13:12.034Z,104.03
2023-01-17T02:16:05.759Z,105.10
2023-01-17T02:18:43.008Z,112.00
2023-01-17T02:21:19.038Z,111.07
2023-01-17T02:24:03.615Z,111.60
2023-01-17T02:27:01.713Z,116.57
2023-01-17T02:29:59.225Z,116.43
2023-01-17T02:32:46.893Z,128.45
2023-01-17T02:35:33.310Z,127.38
2023-01-17T02:38:40.441Z,137.07
2023-01-17T02:41:22.577Z,128.40
2023-01-17T02:43:54.552Z,142.00
2023-01-17T02:46:24.462Z,123.07
2023-01-17T02:48:55.024Z,121.93
2023-01-17T02:51:56.047Z,124.63
2023-01-17T02:54:25.989Z,114.82
2023-01-17T02:57:19.316Z,114.05
2023-01-17T03:00:00.914Z,111.60
2023-01-17T03:02:53.745Z,102.57
2023-01-17T03:05:38.663Z,95.00
2023-01-17T03:08:08.988Z,95.53
2023-01-17T03:10:38.955Z,90.95
2023-01-17T03:13:08.329Z,95.88
2023-01-17T03:15:41.151Z,97.55
2023-01-17T03:18:17.686Z,93.57
2023-01-17T03:20:47.743Z,89.43
2023-01-17T03:23:17.603Z,89.18
2023-01-17T03:25:47.060Z,87.90
2023-01-17T03:28:16.698Z,89.38
2023-01-17T03:30:45.839Z,87.47
2023-01-17T03:33:18.049Z,89.95
2023-01-17T03:35:47.682Z,90.72
2023-01-17T03:38:18.037Z,81.85
2023-01-17T03:40:47.354Z,86.50
2023-01-17T03:43:16.139Z,83.90
2023-01-17T03:45:45.273Z,90.80
2023-01-17T03:48:14.328Z,84.53
2023-01-17T03:50:43.856Z,91.35
2023-01-17T03:53:12.624Z,85.38
2023-01-17T03:55:41.689Z,81.88
2023-01-17T03:58:10.879Z,85.95
2023-01-17T04:00:39.670Z,82.38
2023-01-17T04:03:08.787Z,83.30
2023-01-17T04:05:37.527Z,82.75
2023-01-17T04:08:08.273Z,88.38
2023-01-17T04:10:37.125Z,84.35
2023-01-17T04:13:05.945Z,84.78
2023-01-17T04:15:35.776Z,87.57
2023-01-17T04:18:06.512Z,85.53
2023-01-17T04:20:41.038Z,81.78
2023-01-17T04:23:10.353Z,85.20
2023-01-17T04:25:39.135Z,82.35
2023-01-17T04:28:08.656Z,86.20
2023-01-17T04:30:37.542Z,81.03
2023-01-17T04:33:06.823Z,82.90
2023-01-17T04:35:35.817Z,77.55
2023-01-17T04:38:05.431Z,71.63
2023-01-17T04:40:34.285Z,66.22
2023-01-17T04:43:03.364Z,63.92
2023-01-17T04:45:32.366Z,63.63
2023-01-17T04:48:06.426Z,61.80
2023-01-17T04:50:35.889Z,58.58
2023-01-17T04:53:04.480Z,57.55
2023-01-17T04:55:33.369Z,56.15
2023-01-17T04:58:02.231Z,50.22
2023-01-17T05:00:31.568Z,53.00
2023-01-17T05:03:00.541Z,55.92
2023-01-17T05:05:29.640Z,53.13
2023-01-17T05:08:00.349Z,59.20
2023-01-17T05:10:29.757Z,56.42
2023-01-17T05:13:00.653Z,53.65
2023-01-17T05:15:30.064Z,52.63
2023-01-17T05:17:59.517Z,51.88
2023-01-17T05:20:28.691Z,52.50
2023-01-17T05:22:59.202Z,53.33
2023-01-17T05:25:30.678Z,52.72
2023-01-17T05:28:01.547Z,52.73
2023-01-17T05:30:32.542Z,49.88
2023-01-17T05:33:01.877Z,49.97
2023-01-17T05:35:33.679Z,54.63
2023-01-17T05:38:03.306Z,48.95
2023-01-17T05:40:34.360Z,45.75
2023-01-17T05:43:06.825Z,48.10
2023-01-17T05:45:35.900Z,46.92
2023-01-17T05:48:05.730Z,43.55
2023-01-17T05:50:38.270Z,43.47
2023-01-17T05:53:10.387Z,37.53
2023-01-17T05:55:40.572Z,41.70
2023-01-17T05:58:14.714Z,37.17
2023-01-17T06:00:44.703Z,38.97
2023-01-17T06:03:14.036Z,35.33
2023-01-17T06:05:43.902Z,35.78
2023-01-17T06:08:13.312Z,37.22
2023-01-17T06:10:42.081Z,35.83
2023-01-17T06:13:16.415Z,36.38
2023-01-17T06:15:45.587Z,35.47
2023-01-17T06:18:17.522Z,36.85
2023-01-17T06:20:47.431Z,37.55
2023-01-17T06:23:16.932Z,31.95
2023-01-17T06:25:47.844Z,33.50
2023-01-17T06:28:19.894Z,30.60
2023-01-17T06:30:49.266Z,38.00
2023-01-17T06:33:18.270Z,35.90
2023-01-17T06:35:54.458Z,36.30
2023-01-17T06:38:23.807Z,24.67
2023-01-17T06:40:52.880Z,28.83
2023-01-17T06:43:22.118Z,25.50
2023-01-17T06:45:51.451Z,21.55
2023-01-17T06:48:20.789Z,21.55
2023-01-17T06:50:50.704Z,20.15
2023-01-17T06:53:19.714Z,17.23
2023-01-17T06:55:48.902Z,17.83
2023-01-17T06:58:17.746Z,19.40
2023-01-17T07:00:46.875Z,20.17
2023-01-17T07:03:25.379Z,14.60
2023-01-17T07:05:54.611Z,13.98
2023-01-17T07:08:23.760Z,14.68
2023-01-17T07:10:53.145Z,14.95
2023-01-17T07:13:21.803Z,14.30
2023-01-17T07:15:51.009Z,15.48
2023-01-17T07:18:24.068Z,16.42
2023-01-17T07:20:56.206Z,16.27
2023-01-17T07:23:26.049Z,15.48
2023-01-17T07:25:57.657Z,15.80
2023-01-17T07:28:27.952Z,16.40
2023-01-17T07:30:57.341Z,17.33
2023-01-17T07:33:26.348Z,19.08
2023-01-17T07:35:55.380Z,17.50
2023-01-17T07:38:24.196Z,16.90
2023-01-17T07:40:53.255Z,17.52
2023-01-17T07:43:22.207Z,17.17
2023-01-17T07:45:52.741Z,18.33
2023-01-17T07:48:24.582Z,17.63
2023-01-17T07:50:58.059Z,17.47
2023-01-17T07:53:29.646Z,19.50
2023-01-17T07:56:03.906Z,22.50
2023-01-17T07:58:34.241Z,23.75
2023-01-17T08:01:08.804Z,28.17
2023-01-17T08:03:40.902Z,23.98
2023-01-17T08:06:23.615Z,23.73
2023-01-17T08:08:57.951Z,22.42
2023-01-17T08:11:28.360Z,22.00
2023-01-17T08:14:01.071Z,25.58
2023-01-17T08:16:30.851Z,26.08
2023-01-17T08:19:00.108Z,22.73
2023-01-17T08:21:28.876Z,22.55
2023-01-17T08:23:57.791Z,17.65
2023-01-17T08:26:26.649Z,18.15
2023-01-17T08:29:02.340Z,16.23
2023-01-17T08:31:36.354Z,12.77
2023-01-17T08:34:05.669Z,10.93
2023-01-17T08:36:34.488Z,9.15
2023-01-17T08:39:03.830Z,9.65
2023-01-17T08:41:33.311Z,7.35
2023-01-17T08:44:03.252Z,8.43
2023-01-17T08:46:32.943Z,8.25
2023-01-17T08:49:03.756Z,8.27
2023-01-17T08:51:33.750Z,8.23
2023-01-17T08:54:02.604Z,8.30
2023-01-17T08:56:31.683Z,9.43
2023-01-17T08:59:00.375Z,10.23
2023-01-17T09:01:29.493Z,8.55
2023-01-17T09:03:58.295Z,9.48
2023-01-17T09:06:27.709Z,10.55
2023-01-17T09:08:56.580Z,12.30
2023-01-17T09:11:25.529Z,11.20
2023-01-17T09:13:54.778Z,46.40
2023-01-17T09:16:24.116Z,12.02
2023-01-17T09:19:00.136Z,12.05
2023-01-17T09:21:29.307Z,10.75
2023-01-17T09:23:58.437Z,14.43
2023-01-17T09:26:30.151Z,14.48
2023-01-17T09:29:00.120Z,15.10
2023-01-17T09:31:29.961Z,14.70
2023-01-17T09:34:00.245Z,21.33
2023-01-17T09:36:34.754Z,17.52
2023-01-17T09:39:05.057Z,13.02
2023-01-17T09:42:19.487Z,15.13
2023-01-17T09:44:53.512Z,15.70
2023-01-17T09:47:41.490Z,21.02
2023-01-17T09:50:19.655Z,20.02
2023-01-17T09:52:49.128Z,13.35
2023-01-17T09:55:19.407Z,14.90
2023-01-17T09:58:00.969Z,14.93
2023-01-17T10:00:59.142Z,16.15
2023-01-17T10:03:43.288Z,16.08
2023-01-17T10:06:56.745Z,16.60
2023-01-17T10:09:39.884Z,22.20
2023-01-17T10:12:32.655Z,20.38
2023-01-17T10:15:23.196Z,18.08
2023-01-17T10:18:30.485Z,17.88
2023-01-17T10:21:33.847Z,17.20
2023-01-17T10:26:54.101Z,13.82
2023-01-17T10:29:29.207Z,14.98
2023-01-17T10:32:02.572Z,14.43
2023-01-17T10:34:49.310Z,14.20
2023-01-17T10:37:22.041Z,15.82
2023-01-17T10:39:54.767Z,16.92
2023-01-17T10:42:30.211Z,13.10
2023-01-17T10:45:21.893Z,13.07
2023-01-17T10:48:15.322Z,20.27
2023-01-17T10:50:59.527Z,12.07
2023-01-17T10:54:01.953Z,14.13
2023-01-17T10:56:32.251Z,15.40
2023-01-17T10:59:10.090Z,14.88
2023-01-17T11:01:40.963Z,12.48
2023-01-17T11:04:24.780Z,12.35
2023-01-17T11:07:15.391Z,12.90
2023-01-17T11:09:55.257Z,14.20
2023-01-17T11:12:48.306Z,15.20
2023-01-17T11:18:05.632Z,14.88
2023-01-17T11:20:46.641Z,17.45
2023-01-17T11:23:18.717Z,16.73
2023-01-17T11:26:07.226Z,15.75
2023-01-17T11:28:38.685Z,17.20
2023-01-17T11:31:29.707Z,19.27
2023-01-17T11:34:17.569Z,15.63
2023-01-17T11:36:47.071Z,16.92
2023-01-17T11:39:19.311Z,34.15
2023-01-17T11:41:49.827Z,20.15
2023-01-17T11:44:31.224Z,19.70
2023-01-17T11:47:15.655Z,25.63
2023-01-17T11:49:47.342Z,19.23
2023-01-17T11:52:33.347Z,17.35
2023-01-17T11:55:02.392Z,16.52
2023-01-17T11:57:34.446Z,23.65
2023-01-17T12:00:20.768Z,26.17
2023-01-17T12:03:16.208Z,24.30
2023-01-17T12:05:57.433Z,25.15
2023-01-17T12:08:57.583Z,22.00
2023-01-17T12:12:05.812Z,21.17
2023-01-17T12:14:42.289Z,20.75
2023-01-17T12:17:34.510Z,19.17
2023-01-17T12:20:12.632Z,18.40
2023-01-17T12:23:00.758Z,19.23
2023-01-17T12:25:41.543Z,17.38
2023-01-17T12:28:19.651Z,19.48
2023-01-17T12:31:14.511Z,26.50
2023-01-17T12:33:44.724Z,28.45
2023-01-17T12:36:54.200Z,30.80
2023-01-17T12:39:32.554Z,28.23
2023-01-17T12:42:08.773Z,28.02
2023-01-17T12:44:48.109Z,30.95
2023-01-17T12:47:19.592Z,30.52
2023-01-17T12:50:12.510Z,30.35
2023-01-17T12:53:00.212Z,33.22
2023-01-17T12:55:43.069Z,31.80
2023-01-17T13:00:55.871Z,32.80
2023-01-17T13:03:37.291Z,34.85
2023-01-17T13:06:08.460Z,39.90
2023-01-17T13:08:50.724Z,37.97
2023-01-17T13:12:01.235Z,36.10
2023-01-17T13:14:30.517Z,44.15
2023-01-17T13:17:10.337Z,52.30
2023-01-17T13:20:11.856Z,47.55
2023-01-17T13:22:42.921Z,44.70
2023-01-17T13:25:35.080Z,42.20
2023-01-17T13:28:11.916Z,44.30
2023-01-17T13:30:44.323Z,42.53
2023-01-17T13:33:28.424Z,40.17
2023-01-17T13:36:10.692Z,40.05
2023-01-17T13:39:10.123Z,41.25
2023-01-17T13:41:56.125Z,44.45
2023-01-17T13:44:31.217Z,42.72
2023-01-17T13:47:26.632Z,44.20
2023-01-17T13:49:57.523Z,46.72
2023-01-17T13:52:26.343Z,47.22
2023-01-17T13:54:58.668Z,50.15
2023-01-17T13:57:29.624Z,47.08
2023-01-17T14:00:25.196Z,49.13
2023-01-17T14:02:55.671Z,49.67
2023-01-17T14:05:39.411Z,47.47
2023-01-17T14:08:19.317Z,49.85
2023-01-17T14:10:52.908Z,50.67
2023-01-17T14:13:37.733Z,50.38
2023-01-17T14:16:27.862Z,50.00
2023-01-17T14:18:58.106Z,53.38
2023-01-17T14:21:32.664Z,54.35
2023-01-17T14:24:14.226Z,53.20
2023-01-17T14:26:53.728Z,53.92
2023-01-17T14:29:47.542Z,55.33
2023-01-17T14:32:23.278Z,58.65
2023-01-17T14:34:54.843Z,59.33
2023-01-17T14:37:42.723Z,60.72
2023-01-17T14:40:18.370Z,60.03
2023-01-17T14:42:53.346Z,60.53
2023-01-17T14:45:31.958Z,62.58
2023-01-17T14:48:03.510Z,61.15
2023-01-17T14:50:44.187Z,63.08
2023-01-17T14:53:16.507Z,64.18
2023-01-17T14:55:52.841Z,67.63
2023-01-17T14:58:25.141Z,66.95
2023-01-17T15:01:06.711Z,67.95
2023-01-17T15:04:02.754Z,67.00
2023-01-17T15:06:42.643Z,68.05
2023-01-17T15:09:17.826Z,67.47
2023-01-17T15:11:50.124Z,67.15
2023-01-17T15:14:33.326Z,72.57
2023-01-17T15:17:18.596Z,69.60
2023-01-17T15:20:04.887Z,73.85
2023-01-17T15:22:35.364Z,77.18
2023-01-17T15:25:05.174Z,73.82
2023-01-17T15:27:35.000Z,75.63
2023-01-17T15:30:07.209Z,76.32
2023-01-17T15:32:36.360Z,89.85
2023-01-17T15:35:09.080Z,81.38
2023-01-17T15:37:41.407Z,80.95
2023-01-17T15:40:29.108Z,80.47
2023-01-17T15:43:01.727Z,82.00
2023-01-17T15:45:32.753Z,79.05
2023-01-17T15:48:39.890Z,83.50
2023-01-17T15:51:14.425Z,77.30
2023-01-17T15:53:44.919Z,78.47
2023-01-17T15:56:33.868Z,82.03
2023-01-17T15:59:31.637Z,84.10
2023-01-17T16:02:01.057Z,72.68
2023-01-17T16:04:38.191Z,70.88
2023-01-17T16:07:21.498Z,70.15
2023-01-17T16:09:51.108Z,70.07
2023-01-17T16:12:20.061Z,66.70
2023-01-17T16:15:06.286Z,66.95
2023-01-17T16:17:38.484Z,68.90
2023-01-17T16:20:16.886Z,69.03
2023-01-17T16:22:45.812Z,68.53
2023-01-17T16:25:18.706Z,67.95
2023-01-17T16:27:48.383Z,68.43
2023-01-17T16:30:20.644Z,69.57
2023-01-17T16:32:50.590Z,67.13
2023-01-17T16:35:24.912Z,63.33
2023-01-17T16:37:59.121Z,66.65
2023-01-17T16:40:32.236Z,65.53
2023-01-17T16:43:02.198Z,62.97
2023-01-17T16:45:31.463Z,63.63
2023-01-17T16:48:00.538Z,60.72
2023-01-17T16:50:29.431Z,61.20
2023-01-17T16:52:58.955Z,60.65
2023-01-17T16:55:28.103Z,60.72
2023-01-17T16:57:59.335Z,62.92
2023-01-17T17:00:28.199Z,64.47
2023-01-17T17:02:57.111Z,62.67
2023-01-17T17:05:27.663Z,63.70
2023-01-17T17:07:56.987Z,58.30
2023-01-17T17:10:28.620Z,58.28
2023-01-17T17:12:57.961Z,59.45
2023-01-17T17:15:27.133Z,56.08
2023-01-17T17:17:56.118Z,58.22
2023-01-17T17:20:25.318Z,57.53
2023-01-17T17:22:54.527Z,58.30
2023-01-17T17:25:23.586Z,56.90
2023-01-17T17:27:52.944Z,56.58
2023-01-17T17:30:22.134Z,58.85
2023-01-17T17:32:51.055Z,58.70
2023-01-17T17:35:19.928Z,59.85
2023-01-17T17:37:48.970Z,57.50
2023-01-17T17:40:18.069Z,58.83
2023-01-17T17:42:46.997Z,58.95
2023-01-17T17:45:16.098Z,60.92
2023-01-17T17:47:45.370Z,64.75
2023-01-17T17:50:14.480Z,62.08
2023-01-17T17:52:45.454Z,60.95
2023-01-17T17:55:19.770Z,62.80
2023-01-17T17:57:48.882Z,61.47
2023-01-17T18:00:17.982Z,61.67
2023-01-17T18:02:46.863Z,60.90
2023-01-17T18:05:15.760Z,60.08
2023-01-17T18:07:44.809Z,59.08
2023-01-17T18:10:13.556Z,59.40
2023-01-17T18:12:42.456Z,59.28
2023-01-17T18:15:11.421Z,58.22
2023-01-17T18:17:40.325Z,59.85
2023-01-17T18:20:09.751Z,59.38
2023-01-17T18:22:38.686Z,63.67
2023-01-17T18:25:08.429Z,61.53
2023-01-17T18:27:37.331Z,60.70
2023-01-17T18:30:07.965Z,62.75
2023-01-17T18:32:36.767Z,61.63
2023-01-17T18:35:05.959Z,63.17
2023-01-17T18:37:35.163Z,62.78
2023-01-17T18:40:03.847Z,59.78
2023-01-17T18:42:33.081Z,59.38
2023-01-17T18:45:02.075Z,58.13
2023-01-17T18:47:31.152Z,62.22
2023-01-17T18:50:00.541Z,59.88
2023-01-17T18:52:29.234Z,58.55
2023-01-17T18:54:58.294Z,63.45
2023-01-17T18:57:27.141Z,62.58
2023-01-17T18:59:56.199Z,61.40
2023-01-17T19:02:25.286Z,66.05
2023-01-17T19:04:54.011Z,63.72
2023-01-17T19:07:22.941Z,66.13
2023-01-17T19:09:51.796Z,63.53
2023-01-17T19:12:20.840Z,67.78
2023-01-17T19:14:49.576Z,67.07
2023-01-17T19:17:19.615Z,67.07
2023-01-17T19:19:49.792Z,66.47
2023-01-17T19:22:18.769Z,69.32
2023-01-17T19:24:47.592Z,68.75
2023-01-17T19:27:16.963Z,66.90
2023-01-17T19:29:45.921Z,63.88
2023-01-17T19:32:14.876Z,67.05
2023-01-17T19:34:43.519Z,62.65
2023-01-17T19:37:12.391Z,65.13
2023-01-17T19:39:41.894Z,65.18
2023-01-17T19:42:16.475Z,65.10
2023-01-17T19:44:45.412Z,63.08
2023-01-17T19:47:14.216Z,62.65
2023-01-17T19:49:45.433Z,60.70
2023-01-17T19:52:14.350Z,60.80
2023-01-17T19:54:43.018Z,61.80
2023-01-17T19:57:12.071Z,63.50
2023-01-17T19:59:40.933Z,64.97
2023-01-17T20:02:12.611Z,64.95
2023-01-17T20:04:41.653Z,67.68
2023-01-17T20:07:10.706Z,71.47
2023-01-17T20:09:39.736Z,69.65
2023-01-17T20:12:08.764Z,65.30
2023-01-17T20:14:37.871Z,66.55
2023-01-17T20:17:06.950Z,69.75
2023-01-17T20:19:36.000Z,70.88
2023-01-17T20:22:06.269Z,69.97
2023-01-17T20:24:35.323Z,68.82
2023-01-17T20:27:04.464Z,66.07
2023-01-17T20:29:33.279Z,64.88
2023-01-17T20:32:02.161Z,66.10
2023-01-17T20:34:32.553Z,66.28
2023-01-17T20:37:01.487Z,62.90
2023-01-17T20:39:30.655Z,66.55
2023-01-17T20:41:59.483Z,63.00
2023-01-17T20:44:28.480Z,65.53
2023-01-17T20:46:57.514Z,66.25
2023-01-17T20:49:26.694Z,62.50
2023-01-17T20:51:56.338Z,60.78
2023-01-17T20:54:25.877Z,70.25
2023-01-17T20:56:56.189Z,72.30
2023-01-17T20:59:25.143Z,69.18
2023-01-17T21:01:54.285Z,69.13
2023-01-17T21:04:26.659Z,67.30
2023-01-17T21:06:56.343Z,64.97
2023-01-17T21:09:25.584Z,68.50
2023-01-17T21:12:02.119Z,69.18
2023-01-17T21:14:31.468Z,73.03
2023-01-17T21:17:00.789Z,72.20
2023-01-17T21:19:29.786Z,74.97
2023-01-17T21:21:58.683Z,76.70
2023-01-17T21:24:30.366Z,71.90
2023-01-17T21:26:59.460Z,79.40
2023-01-17T21:29:30.250Z,73.82
2023-01-17T21:31:59.758Z,75.18
2023-01-17T21:34:30.314Z,77.20
2023-01-17T21:36:59.802Z,72.57
2023-01-17T21:39:30.236Z,70.10
2023-01-17T21:41:59.358Z,72.47
2023-01-17T21:44:28.139Z,70.70
2023-01-17T21:46:57.222Z,70.68
2023-01-17T21:49:26.159Z,70.60
2023-01-17T21:51:55.452Z,71.82
2023-01-17T21:54:47.721Z,67.25
2023-01-17T21:57:38.267Z,70.60
2023-01-17T22:00:10.541Z,71.18
2023-01-17T22:02:47.983Z,65.30
2023-01-17T22:05:18.251Z,69.88
2023-01-17T22:08:05.721Z,68.85
2023-01-17T22:10:45.481Z,70.07
2023-01-17T22:13:16.279Z,71.68
2023-01-17T22:15:46.247Z,69.78
2023-01-17T22:18:16.120Z,73.20
2023-01-17T22:20:44.830Z,72.70
2023-01-17T22:23:13.878Z,72.30
2023-01-17T22:25:42.819Z,71.40
2023-01-17T22:28:12.202Z,70.15
2023-01-17T22:30:40.992Z,79.50
2023-01-17T22:33:09.803Z,77.13
2023-01-17T22:35:38.803Z,71.45
2023-01-17T22:38:07.637Z,75.93
2023-01-17T22:40:39.297Z,75.28
2023-01-17T22:43:08.147Z,77.73
2023-01-17T22:45:37.145Z,77.05
2023-01-17T22:48:06.360Z,81.60
2023-01-17T22:50:35.625Z,78.20
2023-01-17T22:53:04.383Z,82.55
2023-01-17T22:55:33.519Z,79.82
2023-01-17T22:58:02.298Z,87.78
2023-01-17T23:00:32.446Z,84.70
2023-01-17T23:03:01.686Z,89.10
2023-01-17T23:05:30.613Z,84.38
2023-01-17T23:08:02.252Z,86.10
2023-01-17T23:10:49.546Z,84.30
2023-01-17T23:13:21.509Z,84.38
2023-01-17T23:16:08.727Z,84.22
2023-01-17T23:18:55.862Z,85.43
2023-01-17T23:21:44.660Z,88.57
2023-01-17T23:24:13.476Z,83.18
2023-01-17T23:27:02.199Z,95.93
2023-01-17T23:29:31.065Z,104.85
2023-01-17T23:31:59.850Z,104.38
2023-01-17T23:34:28.841Z,96.05
2023-01-17T23:36:57.678Z,92.88
2023-01-17T23:39:28.478Z,85.20
2023-01-17T23:42:16.121Z,90.85
2023-01-17T23:44:45.059Z,86.75
2023-01-17T23:47:13.757Z,89.18
2023-01-17T23:49:44.459Z,85.40
2023-01-17T23:52:13.168Z,84.70
2023-01-17T23:54:42.024Z,87.97
2023-01-17T23:57:10.955Z,81.25
2023-01-17T23:59:39.750Z,89.97
